sensor_id;sensor_type;location;lat;lon;timestamp;P1;durP1;ratioP1;P2;durP2;ratioP2
47287;SDS011;33020;53.008;13.558;2024-03-06T06:45:55;19.63;;;11.60;;
47287;SDS011;33020;53.008;13.558;2024-03-06T06:48:46;26.20;;;12.27;;
47287;SDS011;33020;53.008;13.558;2024-03-06T06:51:15;26.10;;;12.87;;
47287;SDS011;33020;53.008;13.558;2024-03-06T06:53:42;72.73;;;16.30;;
47287;SDS011;33020;53.008;13.558;2024-03-06T06:56:10;26.50;;;12.13;;
47287;SDS011;33020;53.008;13.558;2024-03-06T06:58:38;26.83;;;13.40;;
47287;SDS011;33020;53.008;13.558;2024-03-06T07:01:09;24.27;;;13.40;;
47287;SDS011;33020;53.008;13.558;2024-03-06T07:03:37;27.60;;;14.27;;
47287;SDS011;33020;53.008;13.558;2024-03-06T07:06:04;27.20;;;13.90;;
47287;SDS011;33020;53.008;13.558;2024-03-06T07:08:31;24.77;;;14.17;;
47287;SDS011;33020;53.008;13.558;2024-03-06T07:10:59;30.63;;;14.87;;
47287;SDS011;33020;53.008;13.558;2024-03-06T07:13:26;25.93;;;15.07;;
47287;SDS011;33020;53.008;13.558;2024-03-06T07:15:53;38.57;;;16.73;;
47287;SDS011;33020;53.008;13.558;2024-03-06T07:18:20;27.47;;;14.07;;
47287;SDS011;33020;53.008;13.558;2024-03-06T07:20:48;26.30;;;14.47;;
47287;SDS011;33020;53.008;13.558;2024-03-06T07:23:15;27.47;;;15.67;;
47287;SDS011;33020;53.008;13.558;2024-03-06T07:25:42;33.20;;;16.47;;
47287;SDS011;33020;53.008;13.558;2024-03-06T07:28:09;27.97;;;14.67;;
47287;SDS011;33020;53.008;13.558;2024-03-06T07:30:36;33.93;;;16.33;;
47287;SDS011;33020;53.008;13.558;2024-03-06T07:33:03;32.13;;;17.63;;
47287;SDS011;33020;53.008;13.558;2024-03-06T07:35:31;25.20;;;15.17;;
47287;SDS011;33020;53.008;13.558;2024-03-06T07:37:58;35.77;;;17.03;;
47287;SDS011;33020;53.008;13.558;2024-03-06T07:40:26;24.90;;;14.90;;
47287;SDS011;33020;53.008;13.558;2024-03-06T07:42:53;27.63;;;16.53;;
47287;SDS011;33020;53.008;13.558;2024-03-06T07:45:20;27.43;;;14.10;;
47287;SDS011;33020;53.008;13.558;2024-03-06T07:47:47;29.23;;;14.53;;
47287;SDS011;33020;53.008;13.558;2024-03-06T07:50:15;34.30;;;18.07;;
47287;SDS011;33020;53.008;13.558;2024-03-06T07:52:46;28.93;;;15.57;;
47287;SDS011;33020;53.008;13.558;2024-03-06T07:55:13;25.00;;;14.43;;
47287;SDS011;33020;53.008;13.558;2024-03-06T07:57:40;30.73;;;16.43;;
47287;SDS011;33020;53.008;13.558;2024-03-06T08:00:11;28.20;;;15.70;;
47287;SDS011;33020;53.008;13.558;2024-03-06T08:02:42;35.10;;;17.80;;
47287;SDS011;33020;53.008;13.558;2024-03-06T08:05:16;31.00;;;15.20;;
47287;SDS011;33020;53.008;13.558;2024-03-06T08:07:44;29.50;;;17.50;;
47287;SDS011;33020;53.008;13.558;2024-03-06T08:10:12;31.03;;;17.50;;
47287;SDS011;33020;53.008;13.558;2024-03-06T08:12:43;34.33;;;17.97;;
47287;SDS011;33020;53.008;13.558;2024-03-06T08:15:11;32.40;;;17.90;;
47287;SDS011;33020;53.008;13.558;2024-03-06T08:17:40;29.60;;;15.97;;
47287;SDS011;33020;53.008;13.558;2024-03-06T08:20:11;31.40;;;17.03;;
47287;SDS011;33020;53.008;13.558;2024-03-06T08:22:42;29.07;;;16.37;;
47287;SDS011;33020;53.008;13.558;2024-03-06T08:25:10;27.60;;;16.60;;
47287;SDS011;33020;53.008;13.558;2024-03-06T08:27:39;32.07;;;17.73;;
47287;SDS011;33020;53.008;13.558;2024-03-06T08:30:07;28.47;;;16.70;;
47287;SDS011;33020;53.008;13.558;2024-03-06T08:32:36;37.27;;;17.60;;
47287;SDS011;33020;53.008;13.558;2024-03-06T08:35:05;32.03;;;17.47;;
47287;SDS011;33020;53.008;13.558;2024-03-06T08:37:33;37.33;;;19.67;;
47287;SDS011;33020;53.008;13.558;2024-03-06T08:40:00;30.20;;;17.60;;
47287;SDS011;33020;53.008;13.558;2024-03-06T08:42:28;30.97;;;17.53;;
47287;SDS011;33020;53.008;13.558;2024-03-06T08:44:55;31.73;;;18.97;;
47287;SDS011;33020;53.008;13.558;2024-03-06T08:47:23;33.20;;;18.73;;
47287;SDS011;33020;53.008;13.558;2024-03-06T08:49:50;35.37;;;18.57;;
47287;SDS011;33020;53.008;13.558;2024-03-06T08:52:17;35.63;;;20.00;;
47287;SDS011;33020;53.008;13.558;2024-03-06T08:54:45;33.80;;;19.80;;
47287;SDS011;33020;53.008;13.558;2024-03-06T08:57:12;30.13;;;18.20;;
47287;SDS011;33020;53.008;13.558;2024-03-06T08:59:39;33.70;;;19.60;;
47287;SDS011;33020;53.008;13.558;2024-03-06T09:02:13;34.33;;;19.70;;
47287;SDS011;33020;53.008;13.558;2024-03-06T09:04:41;40.17;;;20.10;;
47287;SDS011;33020;53.008;13.558;2024-03-06T09:07:09;34.23;;;19.73;;
47287;SDS011;33020;53.008;13.558;2024-03-06T09:09:37;35.43;;;19.67;;
47287;SDS011;33020;53.008;13.558;2024-03-06T09:12:05;34.10;;;20.27;;
47287;SDS011;33020;53.008;13.558;2024-03-06T09:14:33;38.70;;;21.30;;
47287;SDS011;33020;53.008;13.558;2024-03-06T09:17:00;33.90;;;18.07;;
47287;SDS011;33020;53.008;13.558;2024-03-06T09:19:28;34.93;;;19.20;;
47287;SDS011;33020;53.008;13.558;2024-03-06T09:21:55;40.13;;;20.67;;
47287;SDS011;33020;53.008;13.558;2024-03-06T09:24:23;38.70;;;20.23;;
47287;SDS011;33020;53.008;13.558;2024-03-06T09:26:52;38.63;;;21.77;;
47287;SDS011;33020;53.008;13.558;2024-03-06T09:29:19;35.27;;;20.30;;
47287;SDS011;33020;53.008;13.558;2024-03-06T09:31:47;39.03;;;21.80;;
47287;SDS011;33020;53.008;13.558;2024-03-06T09:34:15;33.13;;;20.03;;
47287;SDS011;33020;53.008;13.558;2024-03-06T09:36:46;35.60;;;20.57;;
47287;SDS011;33020;53.008;13.558;2024-03-06T09:39:14;41.53;;;22.73;;
47287;SDS011;33020;53.008;13.558;2024-03-06T09:41:46;40.63;;;20.73;;
47287;SDS011;33020;53.008;13.558;2024-03-06T09:44:14;40.03;;;21.97;;
47287;SDS011;33020;53.008;13.558;2024-03-06T09:46:45;36.43;;;21.97;;
47287;SDS011;33020;53.008;13.558;2024-03-06T09:49:13;34.93;;;20.73;;
47287;SDS011;33020;53.008;13.558;2024-03-06T09:51:42;40.37;;;22.00;;
47287;SDS011;33020;53.008;13.558;2024-03-06T09:54:14;40.67;;;23.43;;
47287;SDS011;33020;53.008;13.558;2024-03-06T09:56:48;39.00;;;21.73;;
47287;SDS011;33020;53.008;13.558;2024-03-06T09:59:16;39.53;;;21.73;;
47287;SDS011;33020;53.008;13.558;2024-03-06T10:01:50;36.63;;;20.70;;
47287;SDS011;33020;53.008;13.558;2024-03-06T10:07:00;40.27;;;22.17;;
47287;SDS011;33020;53.008;13.558;2024-03-06T10:09:29;36.03;;;21.97;;
47287;SDS011;33020;53.008;13.558;2024-03-06T10:12:00;40.17;;;21.73;;
47287;SDS011;33020;53.008;13.558;2024-03-06T10:14:32;40.63;;;22.20;;
47287;SDS011;33020;53.008;13.558;2024-03-06T10:16:59;43.50;;;21.97;;
47287;SDS011;33020;53.008;13.558;2024-03-06T10:19:28;41.83;;;22.53;;
47287;SDS011;33020;53.008;13.558;2024-03-06T10:21:56;34.50;;;22.20;;
47287;SDS011;33020;53.008;13.558;2024-03-06T10:24:28;33.83;;;20.93;;
47287;SDS011;33020;53.008;13.558;2024-03-06T10:26:56;39.77;;;22.30;;
47287;SDS011;33020;53.008;13.558;2024-03-06T10:29:26;32.17;;;20.70;;
47287;SDS011;33020;53.008;13.558;2024-03-06T10:31:54;35.97;;;21.53;;
47287;SDS011;33020;53.008;13.558;2024-03-06T10:34:24;38.03;;;22.43;;
47287;SDS011;33020;53.008;13.558;2024-03-06T10:36:56;41.57;;;25.30;;
47287;SDS011;33020;53.008;13.558;2024-03-06T10:39:24;46.57;;;25.37;;
47287;SDS011;33020;53.008;13.558;2024-03-06T10:41:55;44.30;;;24.47;;
47287;SDS011;33020;53.008;13.558;2024-03-06T10:44:26;48.23;;;26.43;;
47287;SDS011;33020;53.008;13.558;2024-03-06T10:46:58;49.20;;;26.73;;
47287;SDS011;33020;53.008;13.558;2024-03-06T10:49:30;51.17;;;27.43;;
47287;SDS011;33020;53.008;13.558;2024-03-06T10:51:58;45.70;;;21.60;;
47287;SDS011;33020;53.008;13.558;2024-03-06T10:54:26;44.60;;;23.83;;
47287;SDS011;33020;53.008;13.558;2024-03-06T10:56:54;52.70;;;28.90;;
47287;SDS011;33020;53.008;13.558;2024-03-06T10:59:25;52.53;;;26.63;;
47287;SDS011;33020;53.008;13.558;2024-03-06T11:01:57;53.00;;;27.27;;
47287;SDS011;33020;53.008;13.558;2024-03-06T11:04:29;67.57;;;31.50;;
47287;SDS011;33020;53.008;13.558;2024-03-06T11:07:01;65.80;;;31.93;;
47287;SDS011;33020;53.008;13.558;2024-03-06T11:09:32;71.87;;;32.33;;
47287;SDS011;33020;53.008;13.558;2024-03-06T11:12:02;71.00;;;32.43;;
47287;SDS011;33020;53.008;13.558;2024-03-06T11:14:30;67.43;;;31.17;;
47287;SDS011;33020;53.008;13.558;2024-03-06T11:17:00;75.17;;;34.47;;
47287;SDS011;33020;53.008;13.558;2024-03-06T11:28:19;75.27;;;32.77;;
47287;SDS011;33020;53.008;13.558;2024-03-06T11:33:36;66.97;;;30.27;;
47287;SDS011;33020;53.008;13.558;2024-03-06T11:36:15;75.80;;;32.03;;
47287;SDS011;33020;53.008;13.558;2024-03-06T11:39:03;56.27;;;31.10;;
47287;SDS011;33020;53.008;13.558;2024-03-06T11:41:31;67.53;;;31.10;;
47287;SDS011;33020;53.008;13.558;2024-03-06T11:44:00;64.93;;;32.53;;
47287;SDS011;33020;53.008;13.558;2024-03-06T11:49:14;67.67;;;34.27;;
47287;SDS011;33020;53.008;13.558;2024-03-06T11:51:52;69.28;;;32.13;;
47287;SDS011;33020;53.008;13.558;2024-03-06T11:54:20;70.70;;;33.80;;
47287;SDS011;33020;53.008;13.558;2024-03-06T11:56:51;68.13;;;32.17;;
47287;SDS011;33020;53.008;13.558;2024-03-06T11:59:40;66.13;;;31.13;;
47287;SDS011;33020;53.008;13.558;2024-03-06T12:02:07;65.07;;;32.03;;
47287;SDS011;33020;53.008;13.558;2024-03-06T12:04:37;71.13;;;33.53;;
47287;SDS011;33020;53.008;13.558;2024-03-06T12:07:06;65.57;;;30.80;;
47287;SDS011;33020;53.008;13.558;2024-03-06T12:09:34;67.60;;;32.33;;
47287;SDS011;33020;53.008;13.558;2024-03-06T12:12:07;72.93;;;33.55;;
47287;SDS011;33020;53.008;13.558;2024-03-06T12:14:36;63.70;;;29.73;;
47287;SDS011;33020;53.008;13.558;2024-03-06T12:17:10;63.58;;;30.60;;
47287;SDS011;33020;53.008;13.558;2024-03-06T12:19:40;61.72;;;31.60;;
47287;SDS011;33020;53.008;13.558;2024-03-06T12:22:10;58.87;;;31.73;;
47287;SDS011;33020;53.008;13.558;2024-03-06T12:24:37;58.20;;;29.10;;
47287;SDS011;33020;53.008;13.558;2024-03-06T12:27:07;54.03;;;28.97;;
47287;SDS011;33020;53.008;13.558;2024-03-06T12:29:34;58.40;;;28.70;;
47287;SDS011;33020;53.008;13.558;2024-03-06T12:32:02;52.13;;;28.07;;
47287;SDS011;33020;53.008;13.558;2024-03-06T12:34:30;51.10;;;24.93;;
47287;SDS011;33020;53.008;13.558;2024-03-06T12:37:10;51.57;;;25.27;;
47287;SDS011;33020;53.008;13.558;2024-03-06T12:39:38;46.63;;;25.03;;
47287;SDS011;33020;53.008;13.558;2024-03-06T12:42:09;42.92;;;24.85;;
47287;SDS011;33020;53.008;13.558;2024-03-06T12:44:37;44.75;;;24.05;;
47287;SDS011;33020;53.008;13.558;2024-03-06T12:47:06;38.53;;;21.45;;
47287;SDS011;33020;53.008;13.558;2024-03-06T12:49:33;25.80;;;16.23;;
47287;SDS011;33020;53.008;13.558;2024-03-06T12:52:00;28.17;;;16.40;;
47287;SDS011;33020;53.008;13.558;2024-03-06T12:54:31;20.00;;;13.80;;
47287;SDS011;33020;53.008;13.558;2024-03-06T12:56:58;21.42;;;13.38;;
47287;SDS011;33020;53.008;13.558;2024-03-06T12:59:25;17.00;;;12.13;;
47287;SDS011;33020;53.008;13.558;2024-03-06T13:01:52;17.40;;;12.52;;
47287;SDS011;33020;53.008;13.558;2024-03-06T13:04:21;16.67;;;11.90;;
47287;SDS011;33020;53.008;13.558;2024-03-06T13:06:48;16.58;;;10.95;;
47287;SDS011;33020;53.008;13.558;2024-03-06T13:09:15;14.13;;;10.43;;
47287;SDS011;33020;53.008;13.558;2024-03-06T13:11:42;13.18;;;10.07;;
47287;SDS011;33020;53.008;13.558;2024-03-06T13:14:10;14.97;;;10.17;;
47287;SDS011;33020;53.008;13.558;2024-03-06T13:16:39;12.77;;;8.75;;
47287;SDS011;33020;53.008;13.558;2024-03-06T13:19:06;16.73;;;9.53;;
47287;SDS011;33020;53.008;13.558;2024-03-06T13:21:35;14.00;;;9.70;;
47287;SDS011;33020;53.008;13.558;2024-03-06T13:24:02;14.63;;;10.27;;
47287;SDS011;33020;53.008;13.558;2024-03-06T13:26:30;13.83;;;9.50;;
47287;SDS011;33020;53.008;13.558;2024-03-06T13:28:58;13.20;;;8.97;;
47287;SDS011;33020;53.008;13.558;2024-03-06T13:31:27;14.30;;;9.80;;
47287;SDS011;33020;53.008;13.558;2024-03-06T13:33:54;11.80;;;8.77;;
47287;SDS011;33020;53.008;13.558;2024-03-06T13:36:21;14.17;;;10.57;;
47287;SDS011;33020;53.008;13.558;2024-03-06T13:38:49;15.23;;;10.60;;
47287;SDS011;33020;53.008;13.558;2024-03-06T13:41:16;13.73;;;10.13;;
47287;SDS011;33020;53.008;13.558;2024-03-06T13:43:43;13.60;;;9.90;;
47287;SDS011;33020;53.008;13.558;2024-03-06T13:46:10;11.97;;;8.90;;
47287;SDS011;33020;53.008;13.558;2024-03-06T13:48:37;13.10;;;10.20;;
47287;SDS011;33020;53.008;13.558;2024-03-06T13:51:05;12.60;;;9.70;;
47287;SDS011;33020;53.008;13.558;2024-03-06T13:53:32;12.17;;;8.73;;
47287;SDS011;33020;53.008;13.558;2024-03-06T13:55:59;13.83;;;10.57;;
47287;SDS011;33020;53.008;13.558;2024-03-06T13:58:29;13.53;;;8.63;;
47287;SDS011;33020;53.008;13.558;2024-03-06T14:00:57;15.20;;;10.07;;
47287;SDS011;33020;53.008;13.558;2024-03-06T14:03:24;12.90;;;9.07;;
47287;SDS011;33020;53.008;13.558;2024-03-06T14:05:52;11.43;;;8.23;;
47287;SDS011;33020;53.008;13.558;2024-03-06T14:08:19;12.20;;;9.27;;
47287;SDS011;33020;53.008;13.558;2024-03-06T14:10:49;11.27;;;7.90;;
47287;SDS011;33020;53.008;13.558;2024-03-06T14:13:16;14.37;;;9.30;;
47287;SDS011;33020;53.008;13.558;2024-03-06T14:15:43;12.20;;;9.40;;
47287;SDS011;33020;53.008;13.558;2024-03-06T14:18:11;12.53;;;9.60;;
47287;SDS011;33020;53.008;13.558;2024-03-06T14:20:38;12.70;;;8.90;;
47287;SDS011;33020;53.008;13.558;2024-03-06T14:23:06;20.30;;;9.70;;
47287;SDS011;33020;53.008;13.558;2024-03-06T14:25:34;13.10;;;8.87;;
47287;SDS011;33020;53.008;13.558;2024-03-06T14:28:04;13.50;;;10.40;;
47287;SDS011;33020;53.008;13.558;2024-03-06T14:30:31;12.87;;;9.70;;
47287;SDS011;33020;53.008;13.558;2024-03-06T14:32:58;13.90;;;10.20;;
47287;SDS011;33020;53.008;13.558;2024-03-06T14:35:26;14.77;;;10.80;;
47287;SDS011;33020;53.008;13.558;2024-03-06T14:37:53;14.90;;;11.00;;
47287;SDS011;33020;53.008;13.558;2024-03-06T14:40:20;17.47;;;10.67;;
47287;SDS011;33020;53.008;13.558;2024-03-06T14:42:47;15.57;;;11.23;;
47287;SDS011;33020;53.008;13.558;2024-03-06T14:45:17;15.93;;;10.87;;
47287;SDS011;33020;53.008;13.558;2024-03-06T14:47:44;17.17;;;11.33;;
47287;SDS011;33020;53.008;13.558;2024-03-06T14:50:11;17.60;;;11.77;;
47287;SDS011;33020;53.008;13.558;2024-03-06T14:52:38;15.87;;;11.60;;
47287;SDS011;33020;53.008;13.558;2024-03-06T14:55:06;15.77;;;11.50;;
47287;SDS011;33020;53.008;13.558;2024-03-06T14:57:35;15.67;;;11.93;;
47287;SDS011;33020;53.008;13.558;2024-03-06T15:00:03;17.40;;;12.07;;
47287;SDS011;33020;53.008;13.558;2024-03-06T15:02:33;16.57;;;11.57;;
47287;SDS011;33020;53.008;13.558;2024-03-06T15:05:01;20.23;;;13.03;;
47287;SDS011;33020;53.008;13.558;2024-03-06T15:07:29;16.23;;;11.73;;
47287;SDS011;33020;53.008;13.558;2024-03-06T15:09:56;15.97;;;11.40;;
47287;SDS011;33020;53.008;13.558;2024-03-06T15:12:24;18.00;;;12.53;;
47287;SDS011;33020;53.008;13.558;2024-03-06T15:14:52;17.27;;;12.03;;
47287;SDS011;33020;53.008;13.558;2024-03-06T15:17:24;18.30;;;12.43;;
47287;SDS011;33020;53.008;13.558;2024-03-06T15:19:54;17.13;;;12.37;;
47287;SDS011;33020;53.008;13.558;2024-03-06T15:22:21;17.13;;;12.60;;
47287;SDS011;33020;53.008;13.558;2024-03-06T15:24:48;18.40;;;13.07;;
47287;SDS011;33020;53.008;13.558;2024-03-06T15:27:16;17.67;;;12.07;;
